Time;durP1;ratioP1;P1;durP2;ratioP2;P2;SDS_P1;SDS_P2;PMS_P1;PMS_P2;Temp;Humidity;BMP_temperature;BMP_pressure;BME280_temperature;BME280_humidity;BME280_pressure;Samples;Min_cycle;Max_cycle;Signal;HPM_P1;HPM_P2
2021/07/02 00:01:56;;;;;;;9.30;4.80;;;15.10;99.90;;;;;;4990164;28;20391;-54
2021/07/02 00:04:21;;;;;;;8.80;4.70;;;15.10;99.90;;;;;;4989391;28;20429;-53
2021/07/02 00:06:47;;;;;;;12.57;4.90;;;15.10;99.90;;;;;;4989818;28;20418;-54
2021/07/02 00:09:14;;;;;;;9.57;4.63;;;15.10;99.90;;;;;;4987837;28;20450;-53
2021/07/02 00:11:40;;;;;;;11.82;5.10;;;15.10;99.90;;;;;;4989658;28;20422;-55
2021/07/02 00:14:06;;;;;;;10.47;5.03;;;15.10;99.90;;;;;;4990253;28;20386;-54
2021/07/02 00:16:35;;;;;;;10.32;4.80;;;15.00;99.90;;;;;;4988272;28;20398;-53
2021/07/02 00:19:01;;;;;;;9.20;4.80;;;15.00;99.90;;;;;;4989971;28;20478;-54
2021/07/02 00:21:28;;;;;;;8.88;4.53;;;15.10;99.90;;;;;;4989091;28;20950;-54
2021/07/02 00:23:53;;;;;;;11.05;5.50;;;15.10;99.90;;;;;;4989766;28;20385;-53
2021/07/02 00:26:19;;;;;;;11.27;5.22;;;15.00;99.90;;;;;;4989140;28;20485;-53
2021/07/02 00:28:45;;;;;;;10.27;4.93;;;14.20;99.90;;;;;;4989504;28;20386;-53
2021/07/02 00:31:10;;;;;;;9.68;4.88;;;15.00;99.90;;;;;;4989779;28;20779;-53
2021/07/02 00:33:36;;;;;;;9.63;5.23;;;14.90;99.90;;;;;;4988953;28;20453;-53
2021/07/02 00:36:02;;;;;;;11.27;5.35;;;14.90;99.90;;;;;;4989334;28;20387;-53
2021/07/02 00:38:28;;;;;;;9.82;4.90;;;14.80;99.90;;;;;;4988907;28;20856;-53
2021/07/02 00:40:54;;;;;;;11.57;5.20;;;14.80;99.90;;;;;;4989295;28;20469;-53
2021/07/02 00:43:19;;;;;;;8.70;5.00;;;14.80;99.90;;;;;;4989282;28;20814;-53
2021/07/02 00:45:45;;;;;;;11.55;5.22;;;14.70;99.90;;;;;;4989772;28;20390;-53
2021/07/02 00:48:11;;;;;;;10.50;5.17;;;14.70;99.90;;;;;;4988032;28;20823;-54
2021/07/02 00:50:36;;;;;;;8.65;4.70;;;14.70;99.90;;;;;;4988688;28;20444;-53
2021/07/02 00:53:04;;;;;;;10.63;5.23;;;14.70;99.90;;;;;;4989380;28;20453;-53
2021/07/02 00:55:31;;;;;;;11.05;5.18;;;14.70;99.90;;;;;;4988455;28;20533;-53
2021/07/02 00:57:57;;;;;;;10.82;4.97;;;14.70;99.90;;;;;;4987966;28;20733;-53
2021/07/02 01:00:23;;;;;;;10.52;5.45;;;14.60;99.90;;;;;;4988291;28;20444;-53
2021/07/02 01:02:49;;;;;;;17.20;6.30;;;14.60;99.90;;;;;;4987865;28;20402;-53
2021/07/02 01:05:15;;;;;;;11.52;4.90;;;14.60;99.90;;;;;;4989573;28;20467;-53
2021/07/02 01:07:43;;;;;;;9.32;4.95;;;14.60;99.90;;;;;;4988173;28;20485;-54
2021/07/02 01:10:11;;;;;;;12.63;5.30;;;14.60;99.90;;;;;;4987883;28;20509;-53
2021/07/02 01:12:37;;;;;;;10.70;5.40;;;14.60;99.90;;;;;;4988585;28;20422;-53
2021/07/02 01:15:04;;;;;;;10.68;5.43;;;14.60;99.90;;;;;;4989038;28;20490;-53
2021/07/02 01:17:29;;;;;;;10.23;5.20;;;14.60;99.90;;;;;;4988413;28;20421;-53
2021/07/02 01:19:55;;;;;;;12.27;5.50;;;14.60;99.90;;;;;;4989096;28;20829;-53
2021/07/02 01:22:25;;;;;;;9.70;5.50;;;14.60;99.90;;;;;;4988219;28;20408;-52
2021/07/02 01:24:56;;;;;;;10.20;5.50;;;14.50;99.90;;;;;;4988907;28;20406;-53
2021/07/02 01:27:22;;;;;;;12.63;5.72;;;14.60;99.90;;;;;;4988356;28;20935;-52
2021/07/02 01:29:49;;;;;;;10.85;5.70;;;14.50;99.90;;;;;;4988752;28;20868;-54
2021/07/02 01:32:16;;;;;;;12.30;5.88;;;14.50;99.90;;;;;;4988685;28;20422;-53
2021/07/02 01:34:42;;;;;;;10.40;5.30;;;14.60;99.90;;;;;;4988276;28;20434;-53
2021/07/02 01:37:08;;;;;;;12.75;5.80;;;14.50;99.90;;;;;;4989540;28;20431;-53
2021/07/02 01:39:37;;;;;;;10.90;5.40;;;14.50;99.90;;;;;;4988213;28;20403;-53
2021/07/02 01:42:07;;;;;;;11.20;5.53;;;14.50;99.90;;;;;;4989421;28;20402;-53
2021/07/02 01:44:33;;;;;;;12.20;6.00;;;14.50;99.90;;;;;;4988027;28;20378;-54
2021/07/02 01:46:59;;;;;;;11.90;6.35;;;14.50;99.90;;;;;;4988696;28;20730;-53
2021/07/02 01:49:25;;;;;;;11.00;6.20;;;14.40;99.90;;;;;;4991143;28;20426;-53
2021/07/02 01:51:51;;;;;;;12.20;5.60;;;14.40;99.90;;;;;;4992374;28;20418;-54
2021/07/02 01:54:16;;;;;;;13.07;5.70;;;14.30;99.90;;;;;;4990816;28;20428;-54
2021/07/02 01:56:47;;;;;;;11.63;6.33;;;14.30;99.90;;;;;;4992007;28;20464;-53
2021/07/02 01:59:18;;;;;;;10.00;5.20;;;14.30;99.90;;;;;;4992626;28;20449;-53
2021/07/02 02:01:45;;;;;;;10.90;5.40;;;14.20;99.90;;;;;;4991736;28;20401;-53
2021/07/02 02:04:13;;;;;;;10.73;5.30;;;14.10;99.90;;;;;;4992239;28;20888;-53
2021/07/02 02:06:39;;;;;;;10.70;5.90;;;14.20;99.90;;;;;;4991508;28;20519;-53
2021/07/02 02:09:05;;;;;;;10.77;5.10;;;14.30;99.90;;;;;;4990819;28;20382;-53
2021/07/02 02:11:31;;;;;;;14.52;6.25;;;14.30;99.90;;;;;;4991369;28;20453;-53
2021/07/02 02:13:57;;;;;;;14.13;6.20;;;14.20;99.90;;;;;;4992259;28;20849;-53
2021/07/02 02:16:24;;;;;;;12.10;6.32;;;14.20;99.90;;;;;;4991567;28;20387;-53
2021/07/02 02:18:50;;;;;;;12.40;5.80;;;14.10;99.90;;;;;;4992091;28;20400;-53
2021/07/02 02:21:16;;;;;;;11.83;5.50;;;14.00;99.90;;;;;;4991917;28;20880;-53
2021/07/02 02:23:42;;;;;;;10.93;6.32;;;14.00;99.90;;;;;;4989995;28;20395;-53
2021/07/02 02:26:07;;;;;;;11.47;5.57;;;14.00;99.90;;;;;;4985340;28;20382;-53
2021/07/02 02:28:33;;;;;;;12.35;5.75;;;13.90;99.90;;;;;;4991503;28;20397;-53
2021/07/02 02:30:59;;;;;;;13.60;6.70;;;13.90;99.90;;;;;;4992133;28;20868;-54
2021/07/02 02:33:24;;;;;;;11.40;5.90;;;13.80;99.90;;;;;;4991285;28;20386;-53
2021/07/02 02:35:50;;;;;;;10.93;5.80;;;13.80;99.90;;;;;;4991352;28;20485;-53
2021/07/02 02:38:16;;;;;;;12.07;6.40;;;13.90;99.90;;;;;;4991672;28;20398;-53
2021/07/02 02:40:41;;;;;;;13.07;5.70;;;13.90;99.90;;;;;;4990562;28;20381;-53
2021/07/02 02:43:07;;;;;;;12.57;6.50;;;13.80;99.90;;;;;;4992110;28;20419;-54
2021/07/02 02:45:33;;;;;;;10.60;5.90;;;13.80;99.90;;;;;;4990797;28;20726;-53
2021/07/02 02:47:59;;;;;;;12.57;6.03;;;13.70;99.90;;;;;;4991358;28;20919;-53
2021/07/02 02:50:24;;;;;;;12.77;6.80;;;13.70;99.90;;;;;;5005722;28;20449;-53
2021/07/02 02:52:50;;;;;;;13.77;6.57;;;13.70;99.90;;;;;;4991730;28;20911;-53
2021/07/02 02:55:16;;;;;;;13.95;6.65;;;13.70;99.90;;;;;;4991564;28;20387;-54
2021/07/02 02:57:41;;;;;;;13.33;6.00;;;13.60;99.90;;;;;;4990883;28;20521;-53
2021/07/02 03:00:10;;;;;;;13.10;6.70;;;13.60;99.90;;;;;;4990560;28;20429;-53
2021/07/02 03:02:36;;;;;;;12.60;7.10;;;13.50;99.90;;;;;;5005477;28;20800;-53
2021/07/02 03:05:03;;;;;;;14.65;6.60;;;13.50;99.90;;;;;;4991128;28;20431;-53
2021/07/02 03:07:29;;;;;;;12.30;6.45;;;13.50;99.90;;;;;;4999070;28;20774;-53
2021/07/02 03:09:55;;;;;;;11.43;6.10;;;13.40;99.90;;;;;;4991239;28;20398;-53
2021/07/02 03:12:20;;;;;;;13.93;6.60;;;13.40;99.90;;;;;;4990990;28;20452;-53
2021/07/02 03:14:46;;;;;;;15.05;6.95;;;13.30;99.90;;;;;;4989427;28;20402;-53
2021/07/02 03:17:12;;;;;;;13.60;6.80;;;13.30;99.90;;;;;;4991339;28;20383;-54
2021/07/02 03:19:37;;;;;;;12.90;6.95;;;13.20;99.90;;;;;;4990001;28;20386;-53
2021/07/02 03:22:03;;;;;;;14.03;7.10;;;13.30;99.90;;;;;;4991510;28;20474;-53
2021/07/02 03:24:29;;;;;;;12.80;6.72;;;13.30;99.90;;;;;;4990482;28;20433;-53
2021/07/02 03:26:54;;;;;;;11.20;6.20;;;13.40;99.90;;;;;;4991037;28;20857;-56
2021/07/02 03:29:20;;;;;;;13.38;7.20;;;13.40;99.90;;;;;;4990755;28;20395;-53
2021/07/02 03:31:47;;;;;;;13.70;6.57;;;13.50;99.90;;;;;;4989830;28;20873;-53
2021/07/02 03:34:12;;;;;;;14.27;6.90;;;13.50;99.90;;;;;;4990897;28;20405;-54
2021/07/02 03:36:38;;;;;;;12.68;6.80;;;13.50;99.90;;;;;;4983456;28;20749;-53
2021/07/02 03:39:05;;;;;;;14.03;6.80;;;13.40;99.90;;;;;;4990527;28;20860;-53
2021/07/02 03:41:31;;;;;;;11.80;6.65;;;13.40;99.90;;;;;;4988343;28;20398;-53
2021/07/02 03:43:56;;;;;;;12.20;7.00;;;13.40;99.90;;;;;;4990659;28;20473;-53
2021/07/02 03:46:22;;;;;;;13.68;7.00;;;13.50;99.90;;;;;;4990480;28;20497;-52
2021/07/02 03:48:47;;;;;;;14.77;6.30;;;13.60;99.90;;;;;;4990869;28;20836;-54
2021/07/02 03:51:13;;;;;;;16.17;7.47;;;13.60;99.90;;;;;;4990270;28;20489;-53
2021/07/02 03:53:39;;;;;;;13.33;7.67;;;13.70;99.90;;;;;;4989760;28;20530;-53
2021/07/02 03:56:06;;;;;;;12.05;6.53;;;13.80;99.90;;;;;;4990389;28;20393;-55
2021/07/02 03:58:33;;;;;;;16.67;7.38;;;13.70;99.90;;;;;;4989465;28;20410;-53
2021/07/02 04:00:59;;;;;;;12.50;7.40;;;13.80;99.90;;;;;;4990234;28;20382;-53
2021/07/02 04:03:27;;;;;;;13.13;7.28;;;13.80;99.90;;;;;;4989026;28;20461;-55
2021/07/02 04:05:53;;;;;;;14.02;6.85;;;13.90;99.90;;;;;;4990173;28;20821;-54
2021/07/02 04:08:19;;;;;;;11.93;6.90;;;13.90;99.90;;;;;;4989924;28;20419;-53
2021/07/02 04:10:44;;;;;;;17.73;7.00;;;14.10;99.90;;;;;;4988247;28;20395;-54
2021/07/02 04:13:11;;;;;;;14.13;7.70;;;14.10;99.90;;;;;;4989073;28;20390;-53
2021/07/02 04:15:37;;;;;;;12.15;6.30;;;14.20;99.90;;;;;;4989365;28;20393;-53
2021/07/02 04:18:03;;;;;;;12.23;6.85;;;14.30;99.90;;;;;;4990273;28;20395;-53
2021/07/02 04:20:29;;;;;;;11.73;6.43;;;14.30;99.90;;;;;;4989079;28;20816;-53
2021/07/02 04:22:54;;;;;;;13.50;6.60;;;14.50;99.90;;;;;;4989595;28;20400;-54
2021/07/02 04:25:20;;;;;;;13.40;6.90;;;14.60;99.90;;;;;;4989720;28;20473;-53
2021/07/02 04:27:46;;;;;;;13.23;6.75;;;14.50;99.90;;;;;;4988900;28;20410;-53
2021/07/02 04:30:12;;;;;;;13.67;7.07;;;14.60;99.90;;;;;;4989536;28;20445;-53
2021/07/02 04:32:38;;;;;;;11.40;6.13;;;14.60;99.90;;;;;;4988935;28;20429;-53
2021/07/02 04:35:06;;;;;;;13.38;6.40;;;14.70;99.90;;;;;;4989597;28;21145;-53
2021/07/02 04:37:32;;;;;;;10.77;6.55;;;14.70;99.90;;;;;;4989042;28;20389;-53
2021/07/02 04:39:57;;;;;;;11.65;6.55;;;14.80;99.90;;;;;;4989707;28;20390;-53
2021/07/02 04:42:23;;;;;;;11.43;6.63;;;15.00;99.90;;;;;;4988954;28;20752;-53
2021/07/02 04:44:48;;;;;;;12.53;7.07;;;15.10;99.90;;;;;;4989808;28;21009;-54
2021/07/02 04:47:16;;;;;;;11.43;6.50;;;15.20;99.90;;;;;;4989839;28;20752;-54
2021/07/02 04:49:42;;;;;;;12.48;6.90;;;15.40;99.90;;;;;;4987424;28;20487;-54
2021/07/02 04:52:07;;;;;;;13.20;6.13;;;15.50;99.90;;;;;;4988463;28;20863;-54
2021/07/02 04:54:33;;;;;;;10.55;5.75;;;15.50;99.90;;;;;;4988426;28;20896;-54
2021/07/02 04:57:00;;;;;;;13.80;6.50;;;15.60;99.90;;;;;;4989318;28;20856;-54
2021/07/02 04:59:34;;;;;;;11.20;5.82;;;15.60;99.90;;;;;;4988810;28;20401;-53
2021/07/02 05:02:00;;;;;;;11.33;6.23;;;15.80;99.90;;;;;;4983129;28;20390;-54
2021/07/02 05:04:26;;;;;;;12.68;6.70;;;15.70;99.90;;;;;;4988226;28;20482;-53
2021/07/02 05:06:52;;;;;;;10.75;6.20;;;15.70;99.90;;;;;;4989129;28;20995;-54
2021/07/02 05:09:17;;;;;;;11.45;6.00;;;15.70;99.90;;;;;;4982740;28;20486;-54
2021/07/02 05:11:43;;;;;;;12.10;6.60;;;15.70;99.90;;;;;;4988407;28;20887;-54
2021/07/02 05:14:09;;;;;;;11.88;6.65;;;15.80;99.90;;;;;;4989442;28;20401;-54
2021/07/02 05:16:34;;;;;;;10.40;6.47;;;15.80;99.90;;;;;;4988142;28;20481;-54
2021/07/02 05:19:00;;;;;;;11.95;6.20;;;15.80;99.90;;;;;;4988961;28;20397;-54
2021/07/02 05:21:26;;;;;;;12.30;6.57;;;15.90;99.90;;;;;;4988345;28;20395;-53
2021/07/02 05:23:52;;;;;;;11.98;6.50;;;16.00;99.90;;;;;;4991472;28;20388;-54
2021/07/02 05:26:17;;;;;;;11.80;6.80;;;16.00;99.90;;;;;;4992719;28;20433;-54
2021/07/02 05:28:43;;;;;;;10.93;6.33;;;15.90;99.90;;;;;;4992470;28;20542;-54
2021/07/02 05:31:08;;;;;;;11.10;6.50;;;16.10;99.90;;;;;;4993273;28;20877;-55
2021/07/02 05:33:34;;;;;;;16.73;7.30;;;16.20;99.90;;;;;;4992224;28;20444;-54
2021/07/02 05:36:00;;;;;;;10.47;6.40;;;16.30;99.90;;;;;;4993533;28;20386;-54
2021/07/02 05:38:26;;;;;;;13.45;6.50;;;16.40;99.90;;;;;;4992944;28;20465;-53
2021/07/02 05:40:55;;;;;;;11.77;6.50;;;16.70;99.90;;;;;;4992992;28;20450;-54
2021/07/02 05:43:26;;;;;;;13.18;6.38;;;16.70;99.90;;;;;;4993049;28;20390;-54
2021/07/02 05:45:52;;;;;;;12.75;6.65;;;16.90;99.90;;;;;;4993149;28;20883;-54
2021/07/02 05:48:19;;;;;;;12.13;6.30;;;16.80;99.90;;;;;;4992910;28;20445;-54
2021/07/02 05:50:46;;;;;;;12.77;6.90;;;16.80;99.90;;;;;;4986888;28;20398;-54
2021/07/02 05:53:12;;;;;;;12.32;6.30;;;16.80;99.90;;;;;;4989902;28;20402;-54
2021/07/02 05:55:38;;;;;;;16.52;7.07;;;16.70;99.90;;;;;;4991544;28;20424;-54
2021/07/02 05:58:04;;;;;;;13.80;7.10;;;16.70;99.90;;;;;;4991751;28;20418;-54
2021/07/02 06:00:30;;;;;;;15.68;7.15;;;16.90;99.90;;;;;;4991575;28;20795;-54
2021/07/02 06:02:55;;;;;;;14.93;6.83;;;17.20;99.90;;;;;;4991673;28;20383;-54
2021/07/02 06:05:21;;;;;;;12.32;6.50;;;17.90;99.90;;;;;;4992303;28;20464;-54
2021/07/02 06:07:48;;;;;;;13.65;5.80;;;19.10;99.90;;;;;;4991347;28;20601;-55
2021/07/02 06:10:16;;;;;;;10.03;5.80;;;20.70;99.90;;;;;;4992020;28;20445;-55
2021/07/02 06:12:42;;;;;;;10.85;6.03;;;22.00;99.90;;;;;;4992006;28;20465;-54
2021/07/02 06:15:09;;;;;;;11.32;6.07;;;23.10;99.90;;;;;;4992470;28;20386;-55
2021/07/02 06:17:35;;;;;;;9.85;5.30;;;24.60;99.90;;;;;;4991637;28;20477;-56
2021/07/02 06:20:00;;;;;;;10.63;6.70;;;25.60;99.90;;;;;;4992387;28;20466;-56
2021/07/02 06:22:26;;;;;;;10.23;5.70;;;26.10;99.90;;;;;;4990961;28;20382;-54
2021/07/02 06:24:52;;;;;;;10.60;6.07;;;27.10;99.90;;;;;;4991084;28;20689;-55
2021/07/02 06:27:18;;;;;;;10.40;6.50;;;27.30;98.10;;;;;;4991567;28;20975;-55
2021/07/02 06:29:43;;;;;;;12.77;6.07;;;27.30;97.30;;;;;;4990969;28;21089;-55
2021/07/02 06:32:09;;;;;;;9.10;5.20;;;27.10;96.80;;;;;;4990860;28;20391;-54
2021/07/02 06:34:34;;;;;;;8.93;5.47;;;26.80;96.60;;;;;;4990127;28;20465;-54
2021/07/02 06:37:00;;;;;;;10.17;5.40;;;26.60;96.00;;;;;;4991587;28;20394;-59
2021/07/02 06:39:26;;;;;;;10.57;5.50;;;25.60;97.00;;;;;;4991040;28;20469;-56
2021/07/02 06:41:51;;;;;;;10.23;5.37;;;25.20;98.10;;;;;;4990530;28;20494;-61
2021/07/02 06:44:17;;;;;;;11.20;5.30;;;25.40;99.10;;;;;;4991406;28;20401;-61
2021/07/02 06:46:43;;;;;;;9.40;5.00;;;25.60;98.30;;;;;;4990446;28;20446;-60
2021/07/02 06:49:08;;;;;;;9.30;5.50;;;25.70;96.70;;;;;;4991384;28;20397;-61
2021/07/02 06:51:34;;;;;;;7.67;4.80;;;25.00;97.60;;;;;;4990718;28;20469;-60
2021/07/02 06:54:03;;;;;;;10.07;5.13;;;24.70;98.60;;;;;;4991220;28;20449;-61
2021/07/02 06:56:29;;;;;;;9.30;5.40;;;24.80;98.20;;;;;;4988393;28;20391;-60
2021/07/02 06:58:55;;;;;;;9.18;5.00;;;25.20;98.10;;;;;;4990330;28;20602;-60
2021/07/02 07:01:21;;;;;;;8.77;5.20;;;25.10;97.30;;;;;;4990688;28;20466;-60
2021/07/02 07:03:47;;;;;;;7.88;5.00;;;24.60;97.40;;;;;;4988317;28;21304;-60
2021/07/02 07:06:13;;;;;;;8.13;5.33;;;24.40;97.50;;;;;;4990338;28;20457;-61
2021/07/02 07:08:38;;;;;;;8.82;5.00;;;24.00;97.90;;;;;;4989419;28;20395;-59
2021/07/02 07:11:05;;;;;;;9.25;5.10;;;23.20;98.60;;;;;;4988130;28;20445;-59
2021/07/02 07:13:30;;;;;;;8.32;5.13;;;22.50;99.90;;;;;;4991957;28;20393;-60
2021/07/02 07:15:56;;;;;;;9.30;4.53;;;23.10;99.90;;;;;;4990968;28;20733;-61
2021/07/02 07:18:22;;;;;;;8.68;4.82;;;24.10;99.70;;;;;;4990570;28;20864;-60
2021/07/02 07:20:48;;;;;;;8.27;4.60;;;24.80;98.40;;;;;;4990427;28;20473;-59
2021/07/02 07:23:14;;;;;;;8.30;4.78;;;24.80;95.80;;;;;;4990006;28;20393;-58
2021/07/02 07:25:39;;;;;;;8.17;4.73;;;25.00;97.60;;;;;;4989319;28;20387;-59
2021/07/02 07:28:05;;;;;;;9.82;5.30;;;25.00;96.90;;;;;;4990207;28;20433;-59
2021/07/02 07:30:31;;;;;;;8.63;5.05;;;24.00;98.50;;;;;;4989484;28;21164;-62
2021/07/02 07:32:57;;;;;;;8.35;4.63;;;25.10;99.10;;;;;;4990132;28;20382;-62
2021/07/02 07:37:55;;;;;;;9.10;5.00;;;28.40;92.00;;;;;;4990480;28;20398;-57
2021/07/02 07:40:23;;;;;;;9.10;4.90;;;28.10;89.50;;;;;;4989858;28;20386;-60
2021/07/02 07:42:50;;;;;;;9.00;4.95;;;26.80;90.80;;;;;;4989562;28;20437;-59
2021/07/02 07:45:16;;;;;;;9.73;5.60;;;25.20;92.40;;;;;;4990063;28;20383;-59
2021/07/02 07:47:42;;;;;;;10.02;5.40;;;24.00;95.50;;;;;;4988097;28;20417;-61
2021/07/02 07:50:10;;;;;;;8.80;4.90;;;23.80;96.10;;;;;;4990032;28;20402;-59
2021/07/02 07:55:17;;;;;;;10.48;5.30;;;22.90;97.30;;;;;;4989767;28;20478;-53
2021/07/02 07:57:43;;;;;;;9.30;5.40;;;22.30;99.50;;;;;;4989741;28;20390;-53
2021/07/02 08:00:09;;;;;;;9.43;5.30;;;23.10;99.20;;;;;;4988396;28;20944;-52
2021/07/02 08:02:35;;;;;;;9.07;5.03;;;24.90;95.30;;;;;;4988230;28;20465;-53
2021/07/02 08:05:01;;;;;;;13.43;6.15;;;25.50;93.00;;;;;;4989719;28;20410;-51
2021/07/02 08:07:27;;;;;;;9.88;5.20;;;25.50;94.00;;;;;;4989693;28;20927;-54
2021/07/02 08:09:52;;;;;;;9.23;5.25;;;26.20;92.40;;;;;;4990139;28;20398;-53
2021/07/02 08:12:18;;;;;;;9.97;5.00;;;25.90;90.50;;;;;;4989035;28;20442;-53
2021/07/02 08:14:46;;;;;;;8.37;5.20;;;26.30;91.50;;;;;;4989359;28;20386;-52
2021/07/02 08:17:12;;;;;;;10.15;5.15;;;27.10;91.20;;;;;;4990355;28;20393;-53
2021/07/02 08:19:38;;;;;;;9.10;5.55;;;28.10;86.40;;;;;;4989668;28;20379;-52
2021/07/02 08:22:04;;;;;;;9.70;5.30;;;27.50;83.90;;;;;;4989631;28;21263;-52
2021/07/02 08:24:31;;;;;;;10.83;6.10;;;26.50;86.80;;;;;;4988756;28;20501;-54
2021/07/02 08:26:58;;;;;;;9.10;5.70;;;25.90;89.70;;;;;;4987617;28;20441;-53
2021/07/02 08:29:27;;;;;;;8.70;5.40;;;26.20;90.50;;;;;;4989824;28;20402;-53
2021/07/02 08:31:55;;;;;;;10.02;5.88;;;27.30;88.30;;;;;;4989220;28;20406;-54
2021/07/02 08:34:20;;;;;;;9.02;5.50;;;26.40;88.70;;;;;;4987103;28;20469;-53
2021/07/02 08:36:46;;;;;;;9.85;5.40;;;25.30;90.40;;;;;;4987412;28;20485;-53
2021/07/02 08:39:12;;;;;;;9.93;5.65;;;25.60;90.80;;;;;;4989804;28;20810;-53
2021/07/02 08:41:38;;;;;;;11.55;5.43;;;24.50;92.30;;;;;;4988861;28;20437;-53
2021/07/02 08:44:05;;;;;;;9.25;5.60;;;24.10;94.60;;;;;;4989460;28;20403;-53
2021/07/02 08:46:33;;;;;;;10.40;6.20;;;23.40;96.30;;;;;;4988997;28;20433;-54
2021/07/02 08:49:01;;;;;;;9.83;6.13;;;23.10;97.90;;;;;;4989717;28;20406;-53
2021/07/02 08:51:27;;;;;;;9.65;5.47;;;22.70;98.30;;;;;;4987831;28;20394;-53
2021/07/02 08:53:54;;;;;;;13.60;6.80;;;22.40;98.30;;;;;;4988389;28;20564;-53
2021/07/02 08:56:20;;;;;;;10.37;6.00;;;21.70;99.20;;;;;;4989303;28;20379;-53
2021/07/02 08:58:46;;;;;;;10.38;6.10;;;22.00;99.90;;;;;;4986725;28;20753;-53
2021/07/02 09:01:39;;;;;;;11.17;6.17;;;23.60;98.50;;;;;;4989129;28;20449;-53
2021/07/02 09:04:18;;;;;;;10.50;6.40;;;23.10;96.10;;;;;;4992957;28;20445;-53
2021/07/02 09:06:58;;;;;;;12.20;6.63;;;22.20;98.90;;;;;;5004059;28;20417;-53
2021/07/02 09:09:24;;;;;;;10.55;6.15;;;22.60;98.50;;;;;;4990306;28;20394;-54
2021/07/02 09:11:49;;;;;;;11.00;5.93;;;23.90;97.30;;;;;;5004860;28;20404;-54
2021/07/02 09:14:23;;;;;;;11.23;5.83;;;24.90;93.80;;;;;;4992074;28;20778;-54
2021/07/02 09:16:49;;;;;;;8.83;5.33;;;25.40;91.50;;;;;;4999649;28;20450;-54
2021/07/02 09:19:23;;;;;;;10.60;5.70;;;26.90;90.50;;;;;;5001350;28;20758;-53
2021/07/02 09:21:49;;;;;;;11.48;6.18;;;26.80;84.10;;;;;;4992392;28;20675;-54
2021/07/02 09:24:38;;;;;;;9.57;5.47;;;27.70;85.70;;;;;;4995676;28;20391;-54
2021/07/02 09:27:26;;;;;;;9.10;5.65;;;28.40;83.60;;;;;;4997070;28;20421;-53
2021/07/02 09:30:08;;;;;;;11.70;6.10;;;27.80;77.00;;;;;;4997462;28;20849;-53
2021/07/02 09:32:41;;;;;;;9.65;6.00;;;26.90;83.40;;;;;;5004532;28;20483;-55
2021/07/02 09:35:09;;;;;;;10.07;5.40;;;27.10;83.40;;;;;;4977822;28;20406;-54
2021/07/02 09:37:43;;;;;;;9.70;6.03;;;28.30;80.80;;;;;;5002582;28;20412;-55
2021/07/02 09:40:18;;;;;;;9.50;5.60;;;28.90;75.80;;;;;;4999394;28;20741;-54
2021/07/02 09:42:45;;;;;;;10.80;5.40;;;28.80;75.40;;;;;;4995272;28;20388;-54
2021/07/02 09:45:15;;;;;;;10.60;5.60;;;28.60;73.20;;;;;;4990821;28;20399;-51
2021/07/02 09:47:43;;;;;;;9.88;5.60;;;28.30;74.50;;;;;;5000770;28;20420;-53
2021/07/02 09:50:15;;;;;;;9.50;5.57;;;27.70;75.30;;;;;;5001661;28;20393;-52
2021/07/02 09:52:46;;;;;;;10.38;5.93;;;26.70;79.80;;;;;;5001305;28;20474;-53
2021/07/02 09:55:14;;;;;;;8.77;5.50;;;27.20;80.80;;;;;;4991343;28;20397;-53
2021/07/02 09:57:40;;;;;;;10.18;5.43;;;28.10;72.00;;;;;;5000670;28;20482;-53
2021/07/02 10:00:16;;;;;;;9.00;5.00;;;28.80;70.70;;;;;;4987918;28;20474;-53
2021/07/02 10:02:53;;;;;;;9.52;5.40;;;28.70;72.70;;;;;;5000956;28;20400;-53
2021/07/02 10:05:19;;;;;;;9.70;5.55;;;28.50;71.90;;;;;;4973915;28;20417;-53
2021/07/02 10:08:01;;;;;;;9.20;5.30;;;26.50;73.60;;;;;;5003183;28;20432;-53
2021/07/02 10:10:28;;;;;;;10.13;5.78;;;25.00;78.70;;;;;;5005964;28;20410;-53
2021/07/02 10:12:55;;;;;;;11.63;6.40;;;25.70;80.60;;;;;;4992061;28;20391;-53
2021/07/02 10:15:22;;;;;;;9.13;5.50;;;26.50;78.90;;;;;;5008466;28;20724;-53
2021/07/02 10:17:48;;;;;;;8.70;4.80;;;26.70;77.30;;;;;;5005021;28;20399;-53
2021/07/02 10:20:15;;;;;;;8.77;4.97;;;26.70;69.50;;;;;;4991907;28;20406;-54
2021/07/02 10:22:42;;;;;;;8.20;5.05;;;27.70;67.40;;;;;;4991328;28;20390;-54
2021/07/02 10:25:09;;;;;;;9.50;5.38;;;27.30;68.40;;;;;;4991257;28;20403;-55
2021/07/02 10:27:36;;;;;;;9.60;5.72;;;27.40;69.60;;;;;;4990842;28;20860;-57
2021/07/02 10:30:02;;;;;;;10.85;5.60;;;26.70;72.70;;;;;;4992047;28;20394;-54
2021/07/02 10:32:29;;;;;;;8.90;5.45;;;27.00;71.90;;;;;;4992320;28;20383;-54
2021/07/02 10:34:55;;;;;;;9.85;5.20;;;26.50;73.70;;;;;;4989793;28;20409;-55
2021/07/02 10:37:20;;;;;;;12.43;5.60;;;26.00;72.30;;;;;;4992103;28;20394;-54
2021/07/02 10:39:46;;;;;;;10.37;5.13;;;25.60;74.30;;;;;;4990790;28;20391;-54
2021/07/02 10:42:14;;;;;;;9.97;5.10;;;25.90;75.30;;;;;;4972267;28;20396;-55
2021/07/02 10:44:59;;;;;;;9.35;5.20;;;25.90;74.90;;;;;;4971920;28;20874;-55
2021/07/02 10:47:26;;;;;;;9.25;5.18;;;25.60;75.90;;;;;;4982773;28;20505;-54
2021/07/02 10:49:53;;;;;;;9.97;5.77;;;24.80;80.10;;;;;;4988284;28;20485;-54
2021/07/02 10:52:26;;;;;;;9.18;4.70;;;24.20;79.20;;;;;;4991247;28;20394;-54
2021/07/02 10:54:53;;;;;;;9.85;5.15;;;24.20;79.00;;;;;;4988119;28;20387;-54
2021/07/02 10:57:25;;;;;;;8.00;4.60;;;24.30;80.60;;;;;;4989733;28;20405;-53
2021/07/02 10:59:52;;;;;;;9.52;5.07;;;24.70;79.20;;;;;;4987978;28;20433;-54
2021/07/02 11:02:20;;;;;;;10.02;5.32;;;25.20;75.90;;;;;;4991206;28;20399;-54
2021/07/02 11:04:56;;;;;;;9.80;4.70;;;25.40;76.20;;;;;;4988886;28;20808;-54
2021/07/02 11:07:22;;;;;;;9.87;5.40;;;25.30;75.60;;;;;;4990800;28;20422;-55
2021/07/02 11:10:00;;;;;;;9.02;5.00;;;25.60;75.00;;;;;;4989801;28;20768;-55
2021/07/02 11:12:39;;;;;;;9.00;5.25;;;25.40;75.70;;;;;;4991416;28;20398;-54
2021/07/02 11:15:05;;;;;;;9.40;4.88;;;24.90;75.30;;;;;;4990521;28;20410;-54
2021/07/02 11:17:32;;;;;;;8.35;4.53;;;25.00;74.60;;;;;;4990972;28;20401;-55
2021/07/02 11:20:21;;;;;;;8.93;4.85;;;25.60;74.00;;;;;;4989254;28;21015;-54
2021/07/02 11:23:00;;;;;;;9.83;5.30;;;25.40;72.80;;;;;;4986824;28;20407;-54
2021/07/02 11:25:34;;;;;;;9.73;5.30;;;25.00;75.30;;;;;;4991281;28;20908;-53
2021/07/02 11:28:07;;;;;;;10.50;5.53;;;24.20;79.20;;;;;;4988244;28;20418;-54
2021/07/02 11:30:35;;;;;;;11.00;5.63;;;23.90;82.50;;;;;;4990279;28;20460;-54
2021/07/02 11:33:02;;;;;;;8.98;5.20;;;23.60;82.30;;;;;;4990364;28;20387;-53
2021/07/02 11:35:29;;;;;;;8.20;5.00;;;23.80;81.40;;;;;;4990539;28;20403;-54
2021/07/02 11:38:11;;;;;;;8.50;5.00;;;23.90;76.30;;;;;;4990643;28;20435;-54
2021/07/02 11:40:47;;;;;;;10.50;5.82;;;24.10;78.60;;;;;;4990994;28;20768;-56
2021/07/02 11:43:14;;;;;;;8.95;4.90;;;24.20;77.00;;;;;;4991122;28;20386;-54
2021/07/02 11:45:41;;;;;;;8.35;5.10;;;24.40;76.30;;;;;;4990335;28;20494;-56
2021/07/02 11:48:23;;;;;;;9.10;4.80;;;24.30;77.80;;;;;;5004915;23;20437;-53
2021/07/02 11:50:58;;;;;;;11.77;5.47;;;24.10;81.20;;;;;;5031195;23;20463;-54
2021/07/02 11:53:29;;;;;;;10.15;5.50;;;24.20;79.10;;;;;;5050459;28;20445;-54
2021/07/02 11:56:13;;;;;;;10.27;5.35;;;24.30;79.10;;;;;;5049704;28;20386;-54
2021/07/02 11:58:47;;;;;;;10.60;5.53;;;23.90;81.80;;;;;;5031750;28;20761;-59
2021/07/02 12:01:39;;;;;;;12.60;6.10;;;24.10;82.50;;;;;;5050305;28;20397;-54
2021/07/02 12:04:07;;;;;;;9.95;5.80;;;23.80;82.30;;;;;;5049911;28;20374;-54
2021/07/02 12:06:36;;;;;;;10.30;5.57;;;23.50;82.80;;;;;;5050072;28;20823;-55
2021/07/02 12:09:07;;;;;;;10.90;5.75;;;24.10;83.70;;;;;;5049607;28;20388;-54
2021/07/02 12:11:52;;;;;;;10.85;5.60;;;24.80;83.10;;;;;;5031784;28;20492;-55
2021/07/02 12:14:29;;;;;;;9.63;5.40;;;25.30;78.40;;;;;;5049901;28;20382;-54
2021/07/02 12:16:57;;;;;;;9.20;5.65;;;25.20;78.50;;;;;;5039560;28;20428;-54
2021/07/02 12:19:34;;;;;;;11.37;5.90;;;24.60;80.70;;;;;;5034530;28;20393;-55
2021/07/02 12:22:06;;;;;;;9.00;5.20;;;24.70;80.70;;;;;;5039159;28;21082;-54
2021/07/02 12:24:36;;;;;;;9.02;5.13;;;25.20;83.10;;;;;;5040381;28;20477;-56
2021/07/02 12:27:04;;;;;;;13.93;5.90;;;25.00;77.80;;;;;;5021798;28;20474;-55
2021/07/02 12:29:31;;;;;;;10.25;5.40;;;25.20;75.70;;;;;;5021999;28;20443;-55
2021/07/02 12:32:09;;;;;;;9.27;5.38;;;25.60;76.10;;;;;;5037735;28;20429;-55
2021/07/02 12:34:50;;;;;;;8.60;5.75;;;24.50;74.10;;;;;;5017487;28;20884;-55
2021/07/02 12:37:21;;;;;;;10.32;5.60;;;24.00;80.20;;;;;;5031346;28;20395;-54
2021/07/02 12:39:52;;;;;;;9.88;5.60;;;23.90;84.10;;;;;;5029966;28;20474;-55
2021/07/02 12:42:23;;;;;;;10.73;5.28;;;24.40;80.00;;;;;;5042570;28;20861;-55
2021/07/02 12:44:52;;;;;;;9.50;5.60;;;24.70;79.50;;;;;;5019238;28;20954;-55
2021/07/02 12:47:19;;;;;;;8.80;5.20;;;24.60;77.30;;;;;;5038425;28;20910;-55
2021/07/02 12:50:00;;;;;;;10.25;5.50;;;24.10;80.30;;;;;;5039984;28;20453;-54